createdAt,value
2017-03-07T00:00:57.776Z,987.78
2017-03-07T00:01:57.809Z,987.84
2017-03-07T00:02:57.842Z,987.8
2017-03-07T00:03:57.877Z,987.84
2017-03-07T00:04:57.913Z,987.84
2017-03-07T00:05:57.944Z,987.87
2017-03-07T00:06:57.979Z,987.89
2017-03-07T00:07:58.012Z,987.87
2017-03-07T00:08:58.047Z,987.89
2017-03-07T00:09:58.081Z,987.92
2017-03-07T00:10:58.115Z,987.91
2017-03-07T00:11:58.149Z,987.96
2017-03-07T00:12:58.183Z,988.01
2017-03-07T00:13:58.218Z,988
2017-03-07T00:14:58.250Z,988.01
2017-03-07T00:15:58.283Z,988.05
2017-03-07T00:16:58.319Z,988.05
2017-03-07T00:17:58.352Z,988.05
2017-03-07T00:18:58.386Z,988.06
2017-03-07T00:19:58.417Z,988.08
2017-03-07T00:20:58.452Z,988.09
2017-03-07T00:21:58.488Z,988.07
2017-03-07T00:22:58.522Z,988.05
2017-03-07T00:23:58.555Z,988.09
2017-03-07T00:24:58.589Z,988.07
2017-03-07T00:25:58.623Z,988.13
2017-03-07T00:26:58.656Z,988.1
2017-03-07T00:27:58.692Z,988.09
2017-03-07T00:28:58.725Z,988.1
2017-03-07T00:29:58.758Z,988.11
2017-03-07T00:30:58.793Z,988.1
2017-03-07T00:31:58.826Z,988.12
2017-03-07T00:32:58.860Z,988.12
2017-03-07T00:33:58.894Z,988.1
2017-03-07T00:34:58.927Z,988.13
2017-03-07T00:35:58.963Z,988.11
2017-03-07T00:36:58.996Z,988.13
2017-03-07T00:37:59.030Z,988.12
2017-03-07T00:38:59.061Z,988.09
2017-03-07T00:39:59.098Z,988.12
2017-03-07T00:40:59.132Z,988.13
2017-03-07T00:41:59.163Z,988.1
2017-03-07T00:42:59.200Z,988.15
2017-03-07T00:43:59.231Z,988.18
2017-03-07T00:44:59.267Z,988.12
2017-03-07T00:45:59.298Z,988.18
2017-03-07T00:46:59.334Z,988.18
2017-03-07T00:47:59.365Z,988.19
2017-03-07T00:48:59.401Z,988.22
2017-03-07T00:49:59.435Z,988.23
2017-03-07T00:50:59.468Z,988.22
2017-03-07T00:51:59.504Z,988.19
2017-03-07T00:52:59.534Z,988.24
2017-03-07T00:53:59.568Z,988.25
2017-03-07T00:54:59.604Z,988.26
2017-03-07T00:55:59.638Z,988.27
2017-03-07T00:56:59.672Z,988.26
2017-03-07T00:57:59.704Z,988.24
2017-03-07T00:58:59.739Z,988.26
2017-03-07T00:59:59.772Z,988.27
2017-03-07T01:00:59.805Z,988.24
2017-03-07T01:01:59.839Z,988.25
2017-03-07T01:02:59.875Z,988.25
2017-03-07T01:03:59.909Z,988.26
2017-03-07T01:04:59.939Z,988.25
2017-03-07T01:05:59.976Z,988.32
2017-03-07T01:07:00.010Z,988.32
2017-03-07T01:08:00.041Z,988.3
2017-03-07T01:09:00.077Z,988.31
2017-03-07T01:10:00.112Z,988.3
2017-03-07T01:11:00.143Z,988.33
2017-03-07T01:12:00.177Z,988.34
2017-03-07T01:13:00.213Z,988.38
2017-03-07T01:14:00.246Z,988.36
2017-03-07T01:15:00.277Z,988.4
2017-03-07T01:16:00.313Z,988.36
2017-03-07T01:17:00.346Z,988.39
2017-03-07T01:18:00.380Z,988.4
2017-03-07T01:19:00.414Z,988.41
2017-03-07T01:20:00.446Z,988.45
2017-03-07T01:21:00.483Z,988.39
2017-03-07T01:22:00.516Z,988.42
2017-03-07T01:23:00.549Z,988.41
2017-03-07T01:24:00.582Z,988.45
2017-03-07T01:25:00.618Z,988.45
2017-03-07T01:26:00.649Z,988.49
2017-03-07T01:27:00.683Z,988.48
2017-03-07T01:28:00.716Z,988.47
2017-03-07T01:29:00.750Z,988.5
2017-03-07T01:30:00.783Z,988.48
2017-03-07T01:31:00.817Z,988.52
2017-03-07T01:32:00.854Z,988.51
2017-03-07T01:33:00.884Z,988.51
2017-03-07T01:34:00.921Z,988.54
2017-03-07T01:35:00.954Z,988.48
2017-03-07T01:36:00.985Z,988.51
2017-03-07T01:37:01.021Z,988.55
2017-03-07T01:38:01.057Z,988.53
2017-03-07T01:39:01.087Z,988.54
2017-03-07T01:40:01.124Z,988.55
2017-03-07T01:41:01.156Z,988.59
2017-03-07T01:42:01.189Z,988.57
2017-03-07T01:43:01.223Z,988.57
2017-03-07T01:44:01.257Z,988.59
2017-03-07T01:45:01.293Z,988.56
2017-03-07T01:46:01.326Z,988.56
2017-03-07T01:47:01.361Z,988.58
2017-03-07T01:48:01.394Z,988.56
2017-03-07T01:49:01.428Z,988.57
2017-03-07T01:50:01.462Z,988.56
2017-03-07T01:51:01.494Z,988.54
2017-03-07T01:52:01.530Z,988.57
2017-03-07T01:53:01.564Z,988.58
2017-03-07T01:54:01.597Z,988.58
2017-03-07T01:55:01.628Z,988.57
2017-03-07T01:56:01.665Z,988.56
2017-03-07T01:57:01.699Z,988.58
2017-03-07T01:58:01.732Z,988.58
2017-03-07T01:59:01.764Z,988.62
2017-03-07T02:00:01.800Z,988.61
2017-03-07T02:01:01.834Z,988.6
2017-03-07T02:02:01.866Z,988.61
2017-03-07T02:03:01.902Z,988.55
2017-03-07T02:04:01.935Z,988.57
2017-03-07T02:05:01.969Z,988.56
2017-03-07T02:06:02.002Z,988.56
2017-03-07T02:07:02.036Z,988.59
2017-03-07T02:08:02.069Z,988.58
2017-03-07T02:09:02.103Z,988.62
2017-03-07T02:10:02.144Z,988.61
2017-03-07T02:11:02.170Z,988.62
2017-03-07T02:12:02.206Z,988.61
2017-03-07T02:13:02.237Z,988.67
2017-03-07T02:14:02.273Z,988.64
2017-03-07T02:15:02.306Z,988.65
2017-03-07T02:16:02.339Z,988.68
2017-03-07T02:17:02.373Z,988.68
2017-03-07T02:18:02.407Z,988.67
2017-03-07T02:19:02.447Z,988.72
2017-03-07T02:20:02.475Z,988.72
2017-03-07T02:21:02.508Z,988.71
2017-03-07T02:22:02.543Z,988.72
2017-03-07T02:23:02.576Z,988.73
2017-03-07T02:24:02.643Z,988.73
2017-03-07T02:25:02.644Z,988.72
2017-03-07T02:26:02.676Z,988.76
2017-03-07T02:37:23.071Z,988.87
2017-03-07T02:38:12.839Z,988.91
2017-03-07T02:39:12.875Z,988.89
2017-03-07T02:40:12.910Z,988.88
2017-03-07T02:41:12.942Z,988.89
2017-03-07T02:42:12.978Z,988.92
2017-03-07T02:43:13.009Z,988.95
2017-03-07T02:44:13.042Z,988.96
2017-03-07T02:45:13.077Z,988.93
2017-03-07T02:46:13.111Z,988.95
2017-03-07T02:47:13.145Z,988.94
2017-03-07T02:48:13.176Z,988.95
2017-03-07T02:49:13.212Z,988.98
2017-03-07T02:50:13.247Z,988.97
2017-03-07T02:51:13.280Z,988.95
2017-03-07T02:52:13.312Z,988.98
2017-03-07T02:53:13.349Z,988.97
2017-03-07T02:54:13.381Z,988.98
2017-03-07T02:55:13.414Z,988.95
2017-03-07T02:56:13.450Z,989
2017-03-07T02:57:13.484Z,989.01
2017-03-07T02:58:13.517Z,989.01
2017-03-07T02:59:13.550Z,989.01
2017-03-07T03:00:13.582Z,989.02
2017-03-07T03:01:13.617Z,989.02
2017-03-07T03:02:13.649Z,989.09
2017-03-07T03:03:13.685Z,989.1
2017-03-07T03:04:13.717Z,989.09
2017-03-07T03:05:13.753Z,989.05
2017-03-07T03:06:13.785Z,989.11
2017-03-07T03:07:13.820Z,989.1
2017-03-07T03:08:13.852Z,989.1
2017-03-07T03:09:13.887Z,989.1
2017-03-07T03:10:13.919Z,989.11
2017-03-07T03:11:13.954Z,989.1
2017-03-07T03:12:13.988Z,989.17
2017-03-07T03:13:14.021Z,989.18
2017-03-07T03:14:14.060Z,989.15
2017-03-07T03:15:14.088Z,989.21
2017-03-07T03:16:14.123Z,989.18
2017-03-07T03:17:14.156Z,989.24
2017-03-07T03:18:14.190Z,989.24
2017-03-07T03:19:14.225Z,989.21
2017-03-07T03:20:14.258Z,989.23
2017-03-07T03:21:14.289Z,989.23
2017-03-07T03:22:14.322Z,989.2
2017-03-07T03:23:14.357Z,989.24
2017-03-07T03:24:14.393Z,989.23
2017-03-07T03:25:14.424Z,989.21
2017-03-07T03:26:14.460Z,989.24
2017-03-07T03:27:14.494Z,989.26
2017-03-07T03:28:14.527Z,989.29
2017-03-07T03:29:14.561Z,989.3
2017-03-07T03:30:14.595Z,989.29
2017-03-07T03:31:14.629Z,989.31
2017-03-07T03:32:14.660Z,989.34
2017-03-07T03:33:14.696Z,989.34
2017-03-07T03:34:14.728Z,989.33
2017-03-07T03:35:14.764Z,989.33
2017-03-07T03:36:14.797Z,989.36
2017-03-07T03:37:14.831Z,989.4
2017-03-07T03:38:14.864Z,989.4
2017-03-07T03:39:14.898Z,989.44
2017-03-07T03:40:14.932Z,989.48
2017-03-07T03:41:14.965Z,989.5
2017-03-07T03:42:15.002Z,989.49
2017-03-07T03:43:15.035Z,989.5
2017-03-07T03:44:15.069Z,989.51
2017-03-07T03:45:15.101Z,989.54
2017-03-07T03:46:15.136Z,989.56
2017-03-07T03:47:15.168Z,989.56
2017-03-07T03:48:15.203Z,989.55
2017-03-07T03:49:15.237Z,989.58
2017-03-07T03:50:15.272Z,989.55
2017-03-07T03:51:15.304Z,989.57
2017-03-07T03:52:15.341Z,989.59
2017-03-07T03:53:15.370Z,989.58
2017-03-07T03:54:15.405Z,989.59
2017-03-07T03:55:15.438Z,989.61
2017-03-07T03:56:15.474Z,989.65
2017-03-07T03:57:15.505Z,989.65
2017-03-07T03:58:15.542Z,989.65
2017-03-07T03:59:15.574Z,989.62
2017-03-07T04:00:15.608Z,989.65
2017-03-07T04:01:15.641Z,989.66
2017-03-07T04:02:15.678Z,989.7
2017-03-07T04:03:15.710Z,989.71
2017-03-07T04:04:15.745Z,989.71
2017-03-07T04:05:15.778Z,989.74
2017-03-07T04:06:15.811Z,989.73
2017-03-07T04:07:15.845Z,989.7
2017-03-07T04:08:15.877Z,989.73
2017-03-07T04:09:15.913Z,989.75
2017-03-07T04:10:15.946Z,989.76
2017-03-07T04:11:15.980Z,989.79
2017-03-07T04:12:16.023Z,989.76
2017-03-07T04:13:16.048Z,989.81
2017-03-07T04:14:16.081Z,989.78
2017-03-07T04:15:16.115Z,989.81
2017-03-07T04:16:16.148Z,989.81
2017-03-07T04:17:16.181Z,989.8
2017-03-07T04:18:16.217Z,989.81
2017-03-07T04:19:16.248Z,989.83
2017-03-07T04:20:16.283Z,989.87
2017-03-07T04:21:16.315Z,989.82
2017-03-07T04:22:16.351Z,989.85
2017-03-07T04:23:16.382Z,989.89
2017-03-07T04:24:16.418Z,989.9
2017-03-07T04:25:16.452Z,989.93
2017-03-07T04:26:16.485Z,989.9
2017-03-07T04:27:16.521Z,989.92
2017-03-07T04:28:16.555Z,989.98
2017-03-07T04:29:16.588Z,989.97
2017-03-07T04:30:16.620Z,990
2017-03-07T04:31:16.653Z,990.02
2017-03-07T04:32:16.688Z,990.04
2017-03-07T04:33:16.721Z,990.09
2017-03-07T04:34:16.754Z,990.05
2017-03-07T04:35:16.789Z,990.08
2017-03-07T04:36:16.824Z,990.12
2017-03-07T04:37:16.855Z,990.12
2017-03-07T04:38:16.889Z,990.14
2017-03-07T04:39:16.923Z,990.21
2017-03-07T04:40:16.956Z,990.19
2017-03-07T04:41:16.989Z,990.19
2017-03-07T04:42:17.023Z,990.22
2017-03-07T04:43:17.058Z,990.18
2017-03-07T04:44:17.090Z,990.2
2017-03-07T04:45:17.125Z,990.23
2017-03-07T04:46:17.157Z,990.24
2017-03-07T04:47:17.192Z,990.25
2017-03-07T04:48:17.224Z,990.24
2017-03-07T04:49:17.258Z,990.3
2017-03-07T04:50:17.293Z,990.3
2017-03-07T04:51:17.327Z,990.34
2017-03-07T04:52:17.360Z,990.39
2017-03-07T04:53:17.392Z,990.39
2017-03-07T04:54:17.428Z,990.43
2017-03-07T04:55:17.460Z,990.46
2017-03-07T04:56:17.493Z,990.46
2017-03-07T04:57:17.528Z,990.45
2017-03-07T04:58:17.564Z,990.49
2017-03-07T04:59:17.595Z,990.49
2017-03-07T05:00:17.630Z,990.49
2017-03-07T05:01:17.664Z,990.54
2017-03-07T05:02:17.697Z,990.55
2017-03-07T05:03:17.730Z,990.56
2017-03-07T05:04:17.764Z,990.6
2017-03-07T05:05:17.798Z,990.59
2017-03-07T05:06:17.832Z,990.65
2017-03-07T05:07:17.864Z,990.65
2017-03-07T05:08:17.898Z,990.7
2017-03-07T05:09:17.933Z,990.74
2017-03-07T05:10:17.963Z,990.71
2017-03-07T05:11:18.000Z,990.72
2017-03-07T05:12:18.033Z,990.77
2017-03-07T05:13:18.065Z,990.81
2017-03-07T05:14:18.100Z,990.79
2017-03-07T05:15:18.132Z,990.85
2017-03-07T05:16:18.167Z,990.88
2017-03-07T05:17:18.200Z,990.91
2017-03-07T05:18:18.232Z,990.91
2017-03-07T05:19:18.266Z,990.86
2017-03-07T05:20:18.302Z,990.9
2017-03-07T05:21:18.334Z,990.94
2017-03-07T05:22:18.367Z,990.93
2017-03-07T05:23:18.403Z,990.93
2017-03-07T05:24:18.435Z,990.95
2017-03-07T05:25:18.470Z,990.98
2017-03-07T05:26:18.500Z,990.98
2017-03-07T05:27:18.534Z,990.95
2017-03-07T05:28:18.568Z,990.94
2017-03-07T05:29:18.601Z,991.04
2017-03-07T05:30:18.636Z,991.03
2017-03-07T05:31:18.668Z,991.03
2017-03-07T05:32:18.699Z,991.01
2017-03-07T05:33:18.735Z,991
2017-03-07T05:34:18.769Z,991.04
2017-03-07T05:35:18.828Z,991.07
2017-03-07T05:36:18.833Z,991.07
2017-03-07T05:37:18.866Z,991.14
2017-03-07T05:38:18.901Z,991.1
2017-03-07T05:39:18.936Z,991.13
2017-03-07T05:40:18.967Z,991.17
2017-03-07T05:41:19.001Z,991.16
2017-03-07T05:42:19.036Z,991.14
2017-03-07T05:43:19.066Z,991.17
2017-03-07T05:44:19.100Z,991.18
2017-03-07T05:45:19.134Z,991.21
2017-03-07T05:46:19.169Z,991.2
2017-03-07T05:47:19.201Z,991.21
2017-03-07T05:48:19.236Z,991.23
2017-03-07T05:49:19.268Z,991.22
2017-03-07T05:50:19.302Z,991.29
2017-03-07T05:51:19.336Z,991.27
2017-03-07T05:52:19.367Z,991.32
2017-03-07T05:53:19.401Z,991.31
2017-03-07T05:54:19.433Z,991.33
2017-03-07T05:55:19.467Z,991.36
2017-03-07T05:56:19.501Z,991.41
2017-03-07T05:57:19.534Z,991.39
2017-03-07T05:58:19.568Z,991.38
2017-03-07T05:59:19.601Z,991.42
2017-03-07T06:00:19.636Z,991.42
2017-03-07T06:01:19.668Z,991.44
2017-03-07T06:02:19.700Z,991.47
2017-03-07T06:03:19.737Z,991.5
2017-03-07T06:04:19.769Z,991.52
2017-03-07T06:05:19.801Z,991.53
2017-03-07T06:06:19.836Z,991.51
2017-03-07T06:07:19.868Z,991.57
2017-03-07T06:08:19.901Z,991.55
2017-03-07T06:09:19.935Z,991.55
2017-03-07T06:10:19.969Z,991.59
2017-03-07T06:11:20.001Z,991.59
2017-03-07T06:12:20.040Z,991.58
2017-03-07T06:13:20.068Z,991.63
2017-03-07T06:14:20.104Z,991.66
2017-03-07T06:15:20.136Z,991.68
2017-03-07T06:16:20.170Z,991.68
2017-03-07T06:17:20.204Z,991.67
2017-03-07T06:18:20.239Z,991.71
2017-03-07T06:19:20.271Z,991.73
2017-03-07T06:20:20.302Z,991.73
2017-03-07T06:21:20.336Z,991.71
2017-03-07T06:22:20.371Z,991.72
2017-03-07T06:23:20.402Z,991.79
2017-03-07T06:24:21.184Z,991.76
2017-03-07T06:25:20.470Z,991.8
2017-03-07T06:26:20.506Z,991.81
2017-03-07T06:27:20.537Z,991.86
2017-03-07T06:28:20.574Z,991.87
2017-03-07T06:29:20.606Z,991.91
2017-03-07T06:30:20.641Z,991.93
2017-03-07T06:31:20.674Z,991.93
2017-03-07T06:32:20.705Z,991.93
2017-03-07T06:33:20.741Z,991.94
2017-03-07T06:34:20.773Z,991.96
2017-03-07T06:35:20.805Z,991.97
2017-03-07T06:36:20.840Z,991.96
2017-03-07T06:37:20.874Z,991.97
2017-03-07T06:38:20.907Z,992.03
2017-03-07T06:39:20.941Z,992.05
2017-03-07T06:40:20.974Z,992.02
2017-03-07T06:41:21.006Z,992.08
2017-03-07T06:42:21.040Z,992.08
2017-03-07T06:43:21.073Z,992.07
2017-03-07T06:44:21.105Z,992.1
2017-03-07T06:45:21.138Z,992.13
2017-03-07T06:46:21.174Z,992.14
2017-03-07T06:47:21.206Z,992.15
2017-03-07T06:48:21.238Z,992.15
2017-03-07T06:49:21.274Z,992.16
2017-03-07T06:50:21.306Z,992.22
2017-03-07T06:51:21.341Z,992.2
2017-03-07T06:52:21.373Z,992.26
2017-03-07T06:53:21.404Z,992.29
2017-03-07T06:54:21.439Z,992.29
2017-03-07T06:55:21.474Z,992.34
2017-03-07T06:56:21.506Z,992.36
2017-03-07T06:57:21.537Z,992.36
2017-03-07T06:58:21.573Z,992.39
2017-03-07T06:59:21.605Z,992.46
2017-03-07T07:00:21.638Z,992.43
2017-03-07T07:01:21.670Z,992.49
2017-03-07T07:02:21.703Z,992.47
2017-03-07T07:03:21.736Z,992.49
2017-03-07T07:04:21.771Z,992.55
2017-03-07T07:05:21.802Z,992.54
2017-03-07T07:06:21.840Z,992.56
2017-03-07T07:07:21.871Z,992.61
2017-03-07T07:08:21.913Z,992.62
2017-03-07T07:09:22.185Z,992.6
2017-03-07T07:10:21.969Z,992.61
2017-03-07T07:11:22.080Z,992.64
2017-03-07T07:12:22.037Z,992.66
2017-03-07T07:13:22.068Z,992.7
2017-03-07T07:14:22.102Z,992.62
2017-03-07T07:15:22.134Z,992.7
2017-03-07T07:16:22.170Z,992.74
2017-03-07T07:17:22.205Z,992.73
2017-03-07T07:18:22.338Z,992.75
2017-03-07T07:19:22.311Z,992.78
2017-03-07T07:20:22.316Z,992.81
2017-03-07T07:21:22.335Z,992.83
2017-03-07T07:22:22.442Z,992.88
2017-03-07T07:23:22.402Z,992.89
2017-03-07T07:24:22.455Z,992.89
2017-03-07T07:25:22.467Z,992.86
2017-03-07T07:26:22.501Z,992.84
2017-03-07T07:27:22.535Z,992.91
2017-03-07T07:28:23.101Z,992.92
2017-03-07T07:29:22.601Z,992.88
2017-03-07T07:30:22.636Z,992.94
2017-03-07T07:31:22.667Z,992.98
2017-03-07T07:32:22.700Z,993
2017-03-07T07:33:22.732Z,993.06
2017-03-07T07:34:22.770Z,993.04
2017-03-07T07:35:22.800Z,993.07
2017-03-07T07:36:22.833Z,993.07
2017-03-07T07:37:22.868Z,993.08
2017-03-07T07:38:22.900Z,993.1
2017-03-07T07:39:22.935Z,993.1
2017-03-07T07:40:23.045Z,993.13
2017-03-07T07:41:23.019Z,993.13
2017-03-07T07:42:23.034Z,993.13
2017-03-07T07:43:23.067Z,993.18
2017-03-07T07:44:23.101Z,993.15
2017-03-07T07:45:23.169Z,993.16
2017-03-07T07:46:23.233Z,993.27
2017-03-07T07:47:23.203Z,993.26
2017-03-07T07:48:23.233Z,993.29
2017-03-07T07:49:23.264Z,993.3
2017-03-07T07:50:23.300Z,993.34
2017-03-07T07:51:23.333Z,993.35
2017-03-07T07:52:23.434Z,993.42
2017-03-07T07:53:23.399Z,993.4
2017-03-07T07:54:23.433Z,993.41
2017-03-07T07:55:23.466Z,993.43
2017-03-07T07:56:23.499Z,993.4
2017-03-07T07:57:23.533Z,993.42
2017-03-07T07:58:23.564Z,993.47
2017-03-07T07:59:23.598Z,993.5
2017-03-07T08:00:23.631Z,993.47
2017-03-07T08:01:23.665Z,993.53
2017-03-07T08:02:23.699Z,993.56
2017-03-07T08:03:23.730Z,993.55
2017-03-07T08:04:23.765Z,993.57
2017-03-07T08:05:23.814Z,993.53
2017-03-07T08:06:23.830Z,993.63
2017-03-07T08:07:23.863Z,993.64
2017-03-07T08:08:23.897Z,993.66
2017-03-07T08:09:23.929Z,993.67
2017-03-07T08:10:23.961Z,993.7
2017-03-07T08:11:23.996Z,993.69
2017-03-07T08:12:24.030Z,993.73
2017-03-07T08:13:24.068Z,993.73
2017-03-07T08:14:24.094Z,993.75
2017-03-07T08:15:24.130Z,993.76
2017-03-07T08:16:24.162Z,993.8
2017-03-07T08:17:24.196Z,993.78
2017-03-07T08:18:24.229Z,993.78
2017-03-07T08:19:24.262Z,993.83
2017-03-07T08:20:24.294Z,993.81
2017-03-07T08:21:24.374Z,993.86
2017-03-07T08:22:24.360Z,993.9
2017-03-07T08:23:24.396Z,993.84
2017-03-07T08:24:24.427Z,993.88
2017-03-07T08:25:24.459Z,993.95
2017-03-07T08:26:24.491Z,993.94
2017-03-07T08:27:24.525Z,993.93
2017-03-07T08:28:24.560Z,993.97
2017-03-07T08:29:24.591Z,993.98
2017-03-07T08:30:24.624Z,994
2017-03-07T08:31:24.686Z,994.05
2017-03-07T08:32:24.691Z,994.07
2017-03-07T08:33:24.724Z,994.07
2017-03-07T08:34:24.758Z,994.07
2017-03-07T08:35:24.804Z,994.05
2017-03-07T08:36:24.825Z,994.09
2017-03-07T08:37:24.856Z,994.12
2017-03-07T08:38:24.891Z,994.12
2017-03-07T08:39:24.924Z,994.14
2017-03-07T08:40:24.957Z,994.19
2017-03-07T08:41:24.989Z,994.2
2017-03-07T08:42:25.022Z,994.18
2017-03-07T08:43:25.056Z,994.19
2017-03-07T08:44:25.092Z,994.17
2017-03-07T08:45:25.124Z,994.26
2017-03-07T08:46:25.155Z,994.29
2017-03-07T08:47:25.205Z,994.3
2017-03-07T08:48:25.225Z,994.34
2017-03-07T08:49:25.257Z,994.35
2017-03-07T08:50:25.288Z,994.39
2017-03-07T08:51:25.322Z,994.36
2017-03-07T08:52:25.353Z,994.39
2017-03-07T08:53:25.387Z,994.39
2017-03-07T08:54:25.421Z,994.39
2017-03-07T08:55:25.455Z,994.44
2017-03-07T08:56:25.487Z,994.48
2017-03-07T08:57:25.521Z,994.5
2017-03-07T08:58:25.553Z,994.46
2017-03-07T08:59:25.589Z,994.54
2017-03-07T09:00:25.621Z,994.53
2017-03-07T09:01:25.655Z,994.55
2017-03-07T09:02:25.696Z,994.6
2017-03-07T09:03:25.723Z,994.64
2017-03-07T09:04:25.765Z,994.66
2017-03-07T09:05:25.788Z,994.67
2017-03-07T09:06:25.824Z,994.7
2017-03-07T09:07:25.856Z,994.7
2017-03-07T09:08:25.953Z,994.69
2017-03-07T09:09:25.925Z,994.72
2017-03-07T09:10:25.959Z,994.71
2017-03-07T09:11:26.016Z,994.74
2017-03-07T09:12:26.026Z,994.81
2017-03-07T09:13:26.061Z,994.78
2017-03-07T09:14:26.094Z,994.83
2017-03-07T09:15:26.128Z,994.77
2017-03-07T09:16:26.163Z,994.87
2017-03-07T09:17:26.195Z,994.88
2017-03-07T09:18:26.230Z,994.88
2017-03-07T09:19:26.363Z,994.88
2017-03-07T09:20:26.304Z,995.03
2017-03-07T09:21:26.330Z,994.95
2017-03-07T09:22:26.364Z,995
2017-03-07T09:23:26.398Z,995.03
2017-03-07T09:24:26.465Z,995.03
2017-03-07T09:25:26.852Z,995.05
2017-03-07T09:26:26.991Z,995.01
2017-03-07T09:27:26.533Z,995.03
2017-03-07T09:28:26.582Z,995.08
2017-03-07T09:29:26.672Z,995.14
2017-03-07T09:30:26.648Z,995.09
2017-03-07T09:31:26.669Z,995.16
2017-03-07T09:32:26.704Z,995.16
2017-03-07T09:33:26.735Z,995.17
2017-03-07T09:34:26.772Z,995.19
2017-03-07T09:35:26.844Z,995.2
2017-03-07T09:36:26.837Z,995.23
2017-03-07T09:37:26.869Z,995.22
2017-03-07T09:38:26.905Z,995.24
2017-03-07T09:39:26.939Z,995.26
2017-03-07T09:40:26.972Z,995.26
2017-03-07T09:41:27.004Z,995.27
2017-03-07T09:42:27.568Z,995.33
2017-03-07T09:43:27.086Z,995.35
2017-03-07T09:44:27.105Z,995.32
2017-03-07T09:45:27.140Z,995.39
2017-03-07T09:46:27.174Z,995.34
2017-03-07T09:47:27.205Z,995.37
2017-03-07T09:48:27.238Z,995.47
2017-03-07T09:49:27.273Z,995.43
2017-03-07T09:50:27.336Z,995.44
2017-03-07T09:51:27.339Z,995.41
2017-03-07T09:52:27.373Z,995.5
2017-03-07T09:53:27.407Z,995.52
2017-03-07T09:54:27.442Z,995.57
2017-03-07T09:55:27.759Z,995.54
2017-03-07T09:56:27.564Z,995.58
2017-03-07T09:57:27.541Z,995.58
2017-03-07T09:58:27.573Z,995.57
2017-03-07T09:59:27.614Z,995.56
2017-03-07T10:00:27.660Z,995.64
2017-03-07T10:01:27.677Z,995.62
2017-03-07T10:02:27.708Z,995.64
2017-03-07T10:03:27.741Z,995.64
2017-03-07T10:04:27.775Z,995.68
2017-03-07T10:05:27.807Z,995.7
2017-03-07T10:06:27.840Z,995.71
2017-03-07T10:07:27.874Z,995.71
2017-03-07T10:08:27.906Z,995.69
2017-03-07T10:09:27.939Z,995.74
2017-03-07T10:10:27.972Z,995.76
2017-03-07T10:11:28.529Z,995.76
2017-03-07T10:12:28.039Z,995.77
2017-03-07T10:13:28.718Z,995.82
2017-03-07T10:14:28.119Z,995.85
2017-03-07T10:15:28.168Z,995.88
2017-03-07T10:16:28.172Z,995.86
2017-03-07T10:17:28.204Z,995.91
2017-03-07T10:18:29.142Z,995.92
2017-03-07T10:19:28.368Z,995.92
2017-03-07T10:20:28.307Z,995.94
2017-03-07T10:21:28.340Z,995.94
2017-03-07T10:22:28.373Z,996.01
2017-03-07T10:23:28.453Z,996.01
2017-03-07T10:24:28.443Z,996.04
2017-03-07T10:25:28.473Z,996.01
2017-03-07T10:26:28.506Z,996.08
2017-03-07T10:27:28.539Z,996.08
2017-03-07T10:28:28.815Z,996.14
2017-03-07T10:29:28.605Z,996.14
2017-03-07T10:30:28.639Z,996.17
2017-03-07T10:31:28.672Z,996.22
2017-03-07T10:32:28.706Z,996.24
2017-03-07T10:33:28.746Z,996.27
2017-03-07T10:34:28.773Z,996.3
2017-03-07T10:35:28.835Z,996.28
2017-03-07T10:36:28.841Z,996.31
2017-03-07T10:37:28.871Z,996.34
2017-03-07T10:38:28.904Z,996.32
2017-03-07T10:39:28.937Z,996.32
2017-03-07T10:40:28.972Z,996.35
2017-03-07T10:41:29.005Z,996.33
2017-03-07T10:42:29.045Z,996.32
2017-03-07T10:43:29.072Z,996.39
2017-03-07T10:44:29.104Z,996.36
2017-03-07T10:45:29.188Z,996.37
2017-03-07T10:46:29.171Z,996.41
2017-03-07T10:47:29.206Z,996.44
2017-03-07T10:48:29.366Z,996.45
2017-03-07T10:49:29.272Z,996.44
2017-03-07T10:50:29.304Z,996.46
2017-03-07T10:51:29.337Z,996.51
2017-03-07T10:52:29.372Z,996.47
2017-03-07T10:53:29.408Z,996.54
2017-03-07T10:54:29.439Z,996.51
2017-03-07T10:55:29.483Z,996.51
2017-03-07T10:56:29.510Z,996.55
2017-03-07T10:57:29.537Z,996.57
2017-03-07T10:58:29.570Z,996.58
2017-03-07T10:59:29.624Z,996.61
2017-03-07T11:00:29.648Z,996.62
2017-03-07T11:01:29.670Z,996.63
2017-03-07T11:02:29.707Z,996.68
2017-03-07T11:03:29.737Z,996.66
2017-03-07T11:04:29.771Z,996.67
2017-03-07T11:05:29.933Z,996.71
2017-03-07T11:06:29.837Z,996.7
2017-03-07T11:07:29.877Z,996.71
2017-03-07T11:08:29.920Z,996.69
2017-03-07T11:09:29.939Z,996.7
2017-03-07T11:10:29.971Z,996.75
2017-03-07T11:11:30.004Z,996.72
2017-03-07T11:12:30.037Z,996.74
2017-03-07T11:13:30.071Z,996.76
2017-03-07T11:14:30.107Z,996.76
2017-03-07T11:15:30.140Z,996.75
2017-03-07T11:16:30.171Z,996.81
2017-03-07T11:17:30.204Z,996.78
2017-03-07T11:18:30.242Z,996.79
2017-03-07T11:19:30.272Z,996.78
2017-03-07T11:20:30.304Z,996.82
2017-03-07T11:21:30.339Z,996.87
2017-03-07T11:22:30.372Z,996.84
2017-03-07T11:23:30.405Z,996.86
2017-03-07T11:24:30.440Z,996.86
2017-03-07T11:25:30.472Z,996.91
2017-03-07T11:26:30.507Z,996.93
2017-03-07T11:27:30.538Z,996.94
2017-03-07T11:28:30.572Z,996.98
2017-03-07T11:29:30.605Z,996.98
2017-03-07T11:30:30.639Z,997.01
2017-03-07T11:31:30.671Z,997.02
2017-03-07T11:32:30.741Z,997
2017-03-07T11:33:30.737Z,997.06
2017-03-07T11:34:30.770Z,997.04
2017-03-07T11:35:30.804Z,997.05
2017-03-07T11:36:30.838Z,997.07
2017-03-07T11:37:30.869Z,997.1
2017-03-07T11:38:30.931Z,997.12
2017-03-07T11:39:30.937Z,997.11
2017-03-07T11:40:30.969Z,997.1
2017-03-07T11:41:31.000Z,997.14
2017-03-07T11:42:31.035Z,997.13
2017-03-07T11:43:31.068Z,997.13
2017-03-07T11:44:31.102Z,997.11
2017-03-07T11:45:31.133Z,997.11
2017-03-07T11:46:31.170Z,997.1
2017-03-07T11:47:31.199Z,997.11
2017-03-07T11:48:31.232Z,997.13
2017-03-07T11:49:31.265Z,997.16
2017-03-07T11:50:31.299Z,997.18
2017-03-07T11:51:31.331Z,997.18
2017-03-07T11:52:31.363Z,997.17
2017-03-07T11:53:31.396Z,997.17
2017-03-07T11:54:31.429Z,997.19
2017-03-07T11:55:31.464Z,997.16
2017-03-07T11:56:31.496Z,997.21
2017-03-07T11:57:31.529Z,997.23
2017-03-07T11:58:31.562Z,997.26
2017-03-07T11:59:31.595Z,997.24
2017-03-07T12:00:31.627Z,997.27
2017-03-07T12:01:31.658Z,997.32
2017-03-07T12:02:31.691Z,997.3
2017-03-07T12:03:31.724Z,997.33
2017-03-07T12:04:31.756Z,997.37
2017-03-07T12:05:31.791Z,997.37
2017-03-07T12:06:31.826Z,997.38
2017-03-07T12:07:31.856Z,997.41
2017-03-07T12:08:32.124Z,997.39
2017-03-07T12:09:31.922Z,997.42
2017-03-07T12:10:31.957Z,997.44
2017-03-07T12:11:31.988Z,997.42
2017-03-07T12:12:32.021Z,997.45
2017-03-07T12:13:32.053Z,997.49
2017-03-07T12:14:32.087Z,997.49
2017-03-07T12:15:32.120Z,997.5
2017-03-07T12:16:32.155Z,997.55
2017-03-07T12:17:32.184Z,997.58
2017-03-07T12:18:32.219Z,997.53
2017-03-07T12:19:32.254Z,997.5
2017-03-07T12:20:32.287Z,997.57
2017-03-07T12:21:32.320Z,997.61
2017-03-07T12:22:32.353Z,997.62
2017-03-07T12:23:32.461Z,997.62
2017-03-07T12:24:32.420Z,997.68
2017-03-07T12:25:32.452Z,997.69
2017-03-07T12:26:32.485Z,997.69
2017-03-07T12:27:32.519Z,997.71
2017-03-07T12:28:32.551Z,997.73
2017-03-07T12:29:32.584Z,997.72
2017-03-07T12:30:32.617Z,997.76
2017-03-07T12:31:32.650Z,997.8
2017-03-07T12:32:32.682Z,997.74
2017-03-07T12:33:32.716Z,997.77
2017-03-07T12:34:32.750Z,997.74
2017-03-07T12:35:32.783Z,997.68
2017-03-07T12:36:32.815Z,997.77
2017-03-07T12:37:32.849Z,997.75
2017-03-07T12:38:32.883Z,997.77
2017-03-07T12:39:32.916Z,997.79
2017-03-07T12:40:32.947Z,997.76
2017-03-07T12:41:32.997Z,997.79
2017-03-07T12:42:33.015Z,997.8